createdAt,value
2022-11-06T00:00:50.039Z,20.10
2022-11-06T00:03:21.236Z,19.30
2022-11-06T00:06:09.908Z,19.40
2022-11-06T00:08:41.716Z,21.10
2022-11-06T00:11:13.413Z,20.10
2022-11-06T00:13:44.862Z,18.90
2022-11-06T00:16:16.239Z,20.60
2022-11-06T00:18:47.213Z,20.60
2022-11-06T00:21:18.777Z,20.80
2022-11-06T00:23:50.260Z,19.50
2022-11-06T00:26:22.310Z,19.90
2022-11-06T00:28:53.378Z,20.30
2022-11-06T00:31:27.160Z,20.90
2022-11-06T00:33:58.820Z,20.70
2022-11-06T00:36:32.001Z,21.30
2022-11-06T00:39:03.245Z,20.00
2022-11-06T00:41:34.208Z,19.90
2022-11-06T00:44:05.423Z,21.10
2022-11-06T00:46:37.702Z,19.70
2022-11-06T00:49:08.219Z,19.30
2022-11-06T00:51:39.655Z,22.70
2022-11-06T00:54:13.309Z,19.30
2022-11-06T00:56:44.085Z,20.80
2022-11-06T00:59:15.483Z,19.90
2022-11-06T01:01:47.003Z,19.30
2022-11-06T01:04:18.974Z,20.20
2022-11-06T01:06:51.039Z,20.40
2022-11-06T01:09:22.693Z,19.20
2022-11-06T01:14:46.172Z,19.10
2022-11-06T01:17:17.419Z,18.80
2022-11-06T01:19:47.951Z,19.80
2022-11-06T01:22:18.790Z,20.30
2022-11-06T01:24:49.491Z,19.30
2022-11-06T01:27:27.796Z,19.90
2022-11-06T01:29:59.602Z,20.00
2022-11-06T01:32:30.644Z,19.60
2022-11-06T01:35:01.169Z,19.00
2022-11-06T01:37:32.414Z,18.40
2022-11-06T01:40:02.964Z,21.50
2022-11-06T01:42:33.811Z,19.10
2022-11-06T01:45:12.403Z,20.30
2022-11-06T01:47:43.565Z,19.30
2022-11-06T01:50:14.749Z,20.90
2022-11-06T01:52:46.012Z,21.00
2022-11-06T01:55:19.231Z,19.80
2022-11-06T01:57:50.344Z,19.80
2022-11-06T02:00:21.526Z,20.60
2022-11-06T02:02:53.213Z,21.30
2022-11-06T02:05:23.957Z,19.10
2022-11-06T02:07:56.450Z,20.20
2022-11-06T02:10:27.266Z,19.00
2022-11-06T02:13:04.572Z,20.70
2022-11-06T02:15:41.348Z,19.80
2022-11-06T02:18:25.598Z,19.30
2022-11-06T02:21:04.005Z,19.80
2022-11-06T02:23:41.504Z,19.70
2022-11-06T02:26:20.954Z,19.40
2022-11-06T02:28:54.645Z,19.20
2022-11-06T02:31:27.130Z,19.50
2022-11-06T02:34:01.332Z,19.00
2022-11-06T02:36:34.008Z,20.60
2022-11-06T02:39:08.932Z,20.40
2022-11-06T02:41:41.926Z,17.90
2022-11-06T02:44:15.254Z,19.60
2022-11-06T02:46:48.231Z,18.90
2022-11-06T02:49:21.286Z,18.70
2022-11-06T02:51:54.030Z,18.70
2022-11-06T02:54:26.874Z,19.60
2022-11-06T02:56:59.377Z,18.80
2022-11-06T02:59:34.225Z,17.90
2022-11-06T03:02:06.119Z,17.20
2022-11-06T03:04:41.221Z,19.50
2022-11-06T03:07:13.335Z,17.80
2022-11-06T03:09:44.813Z,16.90
2022-11-06T03:12:19.593Z,17.30
2022-11-06T03:14:55.045Z,17.00
2022-11-06T03:17:31.403Z,19.70
2022-11-06T03:20:04.753Z,17.90
2022-11-06T03:22:38.760Z,18.90
2022-11-06T03:25:15.747Z,16.70
2022-11-06T03:27:51.097Z,16.80
2022-11-06T03:30:22.086Z,17.00
2022-11-06T03:32:55.471Z,17.60
2022-11-06T03:35:27.902Z,17.50
2022-11-06T03:38:01.029Z,16.70
2022-11-06T03:40:33.249Z,18.20
2022-11-06T03:43:05.631Z,17.10
2022-11-06T03:45:37.493Z,17.80
2022-11-06T03:48:11.888Z,18.00
2022-11-06T03:50:46.573Z,17.50
2022-11-06T03:53:19.796Z,16.50
2022-11-06T03:55:53.298Z,17.90
2022-11-06T04:00:54.231Z,16.80
2022-11-06T04:03:26.660Z,16.80
2022-11-06T04:06:00.350Z,17.10
2022-11-06T04:11:37.654Z,15.40
2022-11-06T04:14:08.950Z,18.60
2022-11-06T04:16:41.315Z,18.50
2022-11-06T04:19:15.223Z,17.00
2022-11-06T04:21:49.866Z,17.90
2022-11-06T04:24:45.574Z,15.70
2022-11-06T04:27:23.430Z,18.10
2022-11-06T04:30:10.891Z,17.20
2022-11-06T04:32:48.773Z,17.50
2022-11-06T04:35:23.427Z,16.30
2022-11-06T04:37:57.920Z,16.20
2022-11-06T04:40:32.155Z,17.80
2022-11-06T04:43:04.764Z,16.20
2022-11-06T04:45:37.392Z,17.50
2022-11-06T04:48:08.915Z,17.00
2022-11-06T04:50:42.129Z,17.60
2022-11-06T04:53:14.088Z,16.90
2022-11-06T04:55:48.603Z,17.20
2022-11-06T04:58:19.577Z,17.30
2022-11-06T05:00:50.959Z,17.40
2022-11-06T05:03:21.948Z,15.70
2022-11-06T05:05:52.546Z,18.90
2022-11-06T05:08:23.482Z,18.00
2022-11-06T05:10:59.636Z,19.10
2022-11-06T05:13:33.188Z,18.30
2022-11-06T05:16:09.353Z,17.80
2022-11-06T05:18:42.232Z,16.80
2022-11-06T05:21:34.441Z,16.70
2022-11-06T05:24:08.910Z,18.70
2022-11-06T05:26:44.164Z,17.90
2022-11-06T05:29:15.686Z,17.80
2022-11-06T05:31:46.502Z,18.50
2022-11-06T05:34:17.190Z,16.80
2022-11-06T05:36:48.216Z,17.30
2022-11-06T05:39:19.009Z,17.40
2022-11-06T05:41:50.495Z,17.10
2022-11-06T05:44:21.296Z,17.80
2022-11-06T05:46:52.067Z,17.70
2022-11-06T05:49:22.860Z,19.80
2022-11-06T05:51:53.299Z,17.90
2022-11-06T05:54:24.070Z,17.00
2022-11-06T05:56:54.956Z,16.70
2022-11-06T05:59:26.509Z,17.80
2022-11-06T06:01:58.771Z,18.40
2022-11-06T06:04:29.670Z,17.90
2022-11-06T06:07:01.096Z,17.50
2022-11-06T06:09:31.595Z,19.10
2022-11-06T06:12:02.835Z,17.70
2022-11-06T06:14:33.341Z,22.60
2022-11-06T06:17:03.899Z,16.90
2022-11-06T06:19:34.502Z,16.70
2022-11-06T06:22:05.258Z,18.80
2022-11-06T06:24:36.506Z,18.20
2022-11-06T06:27:07.276Z,20.20
2022-11-06T06:29:38.327Z,17.60
2022-11-06T06:32:09.133Z,18.20
2022-11-06T06:34:39.548Z,17.90
2022-11-06T06:37:14.397Z,18.40
2022-11-06T06:39:48.638Z,20.30
2022-11-06T06:42:19.620Z,16.70
2022-11-06T06:44:49.984Z,17.70
2022-11-06T06:47:20.781Z,18.60
2022-11-06T06:49:51.626Z,17.40
2022-11-06T06:52:22.246Z,18.30
2022-11-06T06:54:52.703Z,17.70
2022-11-06T06:57:23.341Z,18.30
2022-11-06T06:59:53.720Z,17.90
2022-11-06T07:02:24.469Z,17.60
2022-11-06T07:04:55.005Z,16.10
2022-11-06T07:07:25.726Z,15.90
2022-11-06T07:09:56.235Z,15.70
2022-11-06T07:12:27.417Z,18.00
2022-11-06T07:14:57.990Z,16.90
2022-11-06T07:17:28.617Z,15.90
2022-11-06T07:19:58.976Z,16.40
2022-11-06T07:22:35.533Z,16.20
2022-11-06T07:25:07.823Z,16.20
2022-11-06T07:27:38.701Z,17.90
2022-11-06T07:30:10.198Z,16.90
2022-11-06T07:32:40.679Z,16.30
2022-11-06T07:35:12.487Z,14.70
2022-11-06T07:37:43.377Z,15.10
2022-11-06T07:40:14.931Z,15.40
2022-11-06T07:42:45.583Z,14.60
2022-11-06T07:45:18.918Z,15.90
2022-11-06T07:47:49.553Z,16.10
2022-11-06T07:50:20.162Z,16.80
2022-11-06T07:52:50.950Z,13.70
2022-11-06T07:55:21.667Z,14.80
2022-11-06T07:57:52.836Z,14.80
2022-11-06T08:00:23.304Z,13.90
2022-11-06T08:02:54.255Z,12.60
2022-11-06T08:05:24.786Z,14.10
2022-11-06T08:07:58.994Z,13.20
2022-11-06T08:10:29.652Z,11.10
2022-11-06T08:13:02.112Z,11.90
2022-11-06T08:15:32.725Z,11.40
2022-11-06T08:18:04.162Z,10.40
2022-11-06T08:20:34.630Z,11.80
2022-11-06T08:23:06.254Z,10.90
2022-11-06T08:25:36.880Z,11.60
2022-11-06T08:28:07.757Z,11.30
2022-11-06T08:30:38.244Z,11.70
2022-11-06T08:33:09.587Z,12.30
2022-11-06T08:35:40.170Z,14.10
2022-11-06T08:38:11.510Z,12.20
2022-11-06T08:40:42.427Z,13.10
2022-11-06T08:43:13.571Z,13.70
2022-11-06T08:45:44.798Z,13.40
2022-11-06T08:48:15.396Z,12.80
2022-11-06T08:50:46.050Z,12.00
2022-11-06T08:53:17.115Z,11.70
2022-11-06T08:55:47.968Z,11.90
2022-11-06T08:58:18.681Z,13.00
2022-11-06T09:00:49.233Z,12.50
2022-11-06T09:03:20.124Z,11.60
2022-11-06T09:05:50.561Z,13.30
2022-11-06T09:08:21.389Z,14.10
2022-11-06T09:10:57.252Z,13.60
2022-11-06T09:13:29.624Z,13.60
2022-11-06T09:16:00.862Z,11.20
2022-11-06T09:18:31.359Z,13.20
2022-11-06T09:21:01.945Z,13.00
2022-11-06T09:23:32.590Z,13.60
2022-11-06T09:26:03.283Z,14.40
2022-11-06T09:28:34.016Z,17.40
2022-11-06T09:31:04.507Z,14.70
2022-11-06T09:33:35.386Z,14.10
2022-11-06T09:36:07.023Z,12.90
2022-11-06T09:38:37.976Z,12.80
2022-11-06T09:41:08.575Z,12.40
2022-11-06T09:44:05.909Z,14.80
2022-11-06T09:46:40.198Z,14.40
2022-11-06T09:51:41.541Z,13.80
2022-11-06T09:54:16.632Z,14.60
2022-11-06T09:56:49.328Z,15.10
2022-11-06T09:59:21.283Z,15.70
2022-11-06T10:01:54.214Z,14.00
2022-11-06T10:04:30.171Z,16.90
2022-11-06T10:07:00.995Z,15.30
2022-11-06T10:09:31.996Z,16.80
2022-11-06T10:12:08.132Z,16.00
2022-11-06T10:14:45.682Z,15.60
2022-11-06T10:17:21.223Z,14.80
2022-11-06T10:19:57.018Z,15.10
2022-11-06T10:22:32.137Z,16.70
2022-11-06T10:25:06.097Z,14.90
2022-11-06T10:27:41.036Z,14.70
2022-11-06T10:30:13.094Z,14.20
2022-11-06T10:32:49.552Z,15.00
2022-11-06T10:35:21.920Z,14.80
2022-11-06T10:37:56.073Z,16.30
2022-11-06T10:40:29.975Z,16.80
2022-11-06T10:43:05.069Z,17.40
2022-11-06T10:45:35.743Z,16.10
2022-11-06T10:48:16.230Z,14.00
2022-11-06T10:50:51.402Z,15.10
2022-11-06T10:53:26.273Z,14.60
2022-11-06T10:56:10.854Z,17.20
2022-11-06T10:58:42.299Z,16.80
2022-11-06T11:01:15.176Z,16.80
2022-11-06T11:03:46.792Z,13.40
2022-11-06T11:06:17.967Z,12.70
2022-11-06T11:08:49.173Z,12.80
2022-11-06T11:11:22.903Z,13.80
2022-11-06T11:14:13.097Z,12.50
2022-11-06T11:16:45.071Z,11.40
2022-11-06T11:19:34.546Z,11.60
2022-11-06T11:22:06.066Z,10.20
2022-11-06T11:24:36.882Z,10.70
2022-11-06T11:27:08.280Z,10.40
2022-11-06T11:29:45.896Z,11.10
2022-11-06T11:32:17.535Z,10.20
2022-11-06T11:34:55.403Z,8.80
2022-11-06T11:37:28.732Z,9.20
2022-11-06T11:40:19.018Z,11.30
2022-11-06T11:42:49.880Z,11.50
2022-11-06T11:45:21.131Z,11.80
2022-11-06T11:47:52.692Z,12.50
2022-11-06T11:50:31.430Z,10.20
2022-11-06T11:53:09.680Z,10.20
2022-11-06T11:55:42.860Z,10.70
2022-11-06T11:58:30.706Z,12.90
2022-11-06T12:01:03.113Z,13.80
2022-11-06T12:03:35.447Z,13.30
2022-11-06T12:06:10.367Z,14.20
2022-11-06T12:08:42.233Z,14.40
2022-11-06T12:11:15.945Z,13.10
2022-11-06T12:13:46.759Z,13.20
2022-11-06T12:16:19.545Z,13.70
2022-11-06T12:18:57.543Z,11.30
2022-11-06T12:21:31.884Z,10.10
2022-11-06T12:24:05.105Z,10.70
2022-11-06T12:29:07.565Z,11.10
2022-11-06T12:31:39.512Z,12.40
2022-11-06T12:34:17.198Z,11.00
2022-11-06T12:36:53.827Z,10.00
2022-11-06T12:39:28.767Z,9.90
2022-11-06T12:41:59.444Z,13.40
2022-11-06T12:44:30.385Z,10.20
2022-11-06T12:47:06.064Z,10.50
2022-11-06T12:49:59.280Z,9.00
2022-11-06T12:52:40.217Z,9.70
2022-11-06T12:55:17.261Z,11.90
2022-11-06T12:57:57.410Z,12.70
2022-11-06T13:00:32.158Z,14.00
2022-11-06T13:03:16.365Z,12.70
2022-11-06T13:05:49.366Z,13.80
2022-11-06T13:08:26.771Z,11.50
2022-11-06T13:11:08.157Z,10.90
2022-11-06T13:13:52.265Z,11.30
2022-11-06T13:16:28.941Z,12.40
2022-11-06T13:19:00.799Z,9.90
2022-11-06T13:21:33.583Z,10.30
2022-11-06T13:26:36.383Z,9.60
2022-11-06T13:29:10.390Z,10.30
2022-11-06T13:31:42.603Z,11.20
2022-11-06T13:34:17.493Z,10.50
2022-11-06T13:36:48.923Z,10.00
2022-11-06T13:39:22.136Z,9.90
2022-11-06T13:41:53.926Z,9.70
2022-11-06T13:44:25.842Z,9.20
2022-11-06T13:47:00.088Z,9.50
2022-11-06T13:49:34.388Z,9.80
2022-11-06T13:52:09.837Z,8.30
2022-11-06T13:54:47.634Z,9.60
2022-11-06T13:57:32.616Z,9.80
2022-11-06T14:00:12.985Z,8.50
2022-11-06T14:03:02.972Z,8.00
2022-11-06T14:05:46.368Z,8.10
2022-11-06T14:08:19.471Z,8.00
2022-11-06T14:13:24.775Z,7.20
2022-11-06T14:16:01.969Z,8.50
2022-11-06T14:18:32.741Z,8.50
2022-11-06T14:21:29.344Z,7.30
2022-11-06T14:24:08.092Z,8.70
2022-11-06T14:26:39.722Z,7.70
2022-11-06T14:29:27.061Z,7.20
2022-11-06T14:32:01.945Z,7.20
2022-11-06T14:34:34.266Z,6.60
2022-11-06T14:37:35.996Z,6.40
2022-11-06T14:40:07.708Z,7.00
2022-11-06T14:42:39.592Z,7.30
2022-11-06T14:45:14.688Z,7.10
2022-11-06T14:47:52.680Z,6.40
2022-11-06T14:50:28.244Z,5.80
2022-11-06T14:53:00.522Z,9.00
2022-11-06T14:55:32.991Z,6.70
2022-11-06T14:58:16.005Z,6.70
2022-11-06T15:00:50.954Z,7.40
2022-11-06T15:03:24.347Z,6.40
2022-11-06T15:05:58.790Z,6.40
2022-11-06T15:08:46.067Z,9.40
2022-11-06T15:11:49.685Z,7.20
2022-11-06T15:14:37.447Z,7.10
2022-11-06T15:17:11.980Z,7.50
2022-11-06T15:19:43.461Z,6.30
2022-11-06T15:22:19.193Z,5.80
2022-11-06T15:24:53.170Z,6.70
2022-11-06T15:27:27.115Z,8.00
2022-11-06T15:29:59.811Z,6.30
2022-11-06T15:32:32.661Z,6.80
2022-11-06T15:35:06.529Z,5.90
2022-11-06T15:37:40.315Z,5.90
2022-11-06T15:40:23.837Z,6.60
2022-11-06T15:42:56.014Z,6.20
2022-11-06T15:45:27.150Z,7.10
2022-11-06T15:47:59.445Z,7.20
2022-11-06T15:50:30.357Z,6.10
2022-11-06T15:53:15.360Z,5.60
2022-11-06T15:55:49.340Z,6.10
2022-11-06T15:58:30.808Z,7.30
2022-11-06T16:10:16.707Z,7.10
2022-11-06T16:12:48.114Z,6.30
2022-11-06T16:15:36.156Z,6.30
2022-11-06T16:18:07.711Z,7.40
2022-11-06T16:20:38.243Z,10.70
2022-11-06T16:23:12.727Z,8.10
2022-11-06T16:25:43.624Z,8.40
2022-11-06T16:28:19.006Z,7.90
2022-11-06T16:30:50.179Z,6.80
2022-11-06T16:33:22.310Z,7.70
2022-11-06T16:35:55.475Z,6.90
2022-11-06T16:38:42.560Z,8.90
2022-11-06T16:41:40.823Z,7.40
2022-11-06T16:44:30.711Z,7.60
2022-11-06T16:47:15.090Z,6.90
2022-11-06T16:49:52.660Z,7.50
2022-11-06T16:52:29.666Z,7.00
2022-11-06T16:55:01.479Z,8.00
2022-11-06T16:57:33.534Z,7.80
2022-11-06T17:00:06.297Z,8.90
2022-11-06T17:02:38.160Z,7.80
2022-11-06T17:05:13.095Z,7.30
2022-11-06T17:07:44.416Z,8.20
2022-11-06T17:10:36.582Z,8.70
2022-11-06T17:13:14.860Z,9.10
2022-11-06T17:15:47.192Z,10.10
2022-11-06T17:18:25.007Z,8.60
2022-11-06T17:20:57.979Z,9.00
2022-11-06T17:23:29.644Z,9.50
2022-11-06T17:26:02.517Z,10.50
2022-11-06T17:28:33.249Z,8.90
2022-11-06T17:31:04.385Z,9.30
2022-11-06T17:33:35.227Z,8.70
2022-11-06T17:36:06.675Z,10.80
2022-11-06T17:38:37.002Z,10.50
2022-11-06T17:41:07.942Z,10.70
2022-11-06T17:43:38.274Z,11.70
2022-11-06T17:46:12.778Z,11.20
2022-11-06T17:48:43.531Z,10.50
2022-11-06T17:51:31.880Z,12.50
2022-11-06T17:54:02.747Z,12.30
2022-11-06T17:56:37.845Z,12.10
2022-11-06T17:59:09.355Z,12.60
2022-11-06T18:01:40.536Z,12.90
2022-11-06T18:04:11.517Z,12.60
2022-11-06T18:06:45.175Z,12.50
2022-11-06T18:09:16.090Z,11.10
2022-11-06T18:11:46.727Z,13.30
2022-11-06T18:14:17.788Z,12.50
2022-11-06T18:16:49.230Z,13.40
2022-11-06T18:19:21.111Z,12.50
2022-11-06T18:21:52.372Z,14.40
2022-11-06T18:24:23.233Z,13.50
2022-11-06T18:26:54.304Z,14.00
2022-11-06T18:29:24.672Z,13.20
2022-11-06T18:31:56.074Z,14.50
2022-11-06T18:34:27.088Z,15.40
2022-11-06T18:36:57.821Z,14.10
2022-11-06T18:39:28.534Z,14.40
2022-11-06T18:42:00.392Z,14.60
2022-11-06T18:44:32.525Z,16.00
2022-11-06T18:47:03.706Z,15.50
2022-11-06T18:49:34.307Z,14.80
2022-11-06T18:52:05.535Z,15.10
2022-11-06T18:54:36.439Z,17.50
2022-11-06T18:57:07.528Z,17.60
2022-11-06T18:59:38.169Z,15.40
2022-11-06T19:02:10.166Z,15.10
2022-11-06T19:04:41.100Z,17.00
2022-11-06T19:07:11.977Z,16.60
2022-11-06T19:09:42.882Z,15.40
2022-11-06T19:12:14.833Z,17.20
2022-11-06T19:14:45.822Z,18.50
2022-11-06T19:17:16.918Z,16.60
2022-11-06T19:19:47.800Z,18.40
2022-11-06T19:22:20.766Z,16.80
2022-11-06T19:24:51.520Z,16.80
2022-11-06T19:27:22.429Z,16.60
2022-11-06T19:29:52.907Z,18.30
2022-11-06T19:32:24.230Z,17.40
2022-11-06T19:34:55.084Z,19.40
2022-11-06T19:37:26.169Z,21.00
2022-11-06T19:40:02.747Z,19.00
2022-11-06T19:42:38.635Z,19.70
2022-11-06T19:45:12.372Z,18.00
2022-11-06T19:50:13.525Z,18.10
2022-11-06T19:52:46.440Z,18.20
2022-11-06T19:55:26.120Z,17.80
2022-11-06T19:57:59.958Z,17.50
2022-11-06T20:00:30.863Z,20.20
2022-11-06T20:03:01.709Z,19.40
2022-11-06T20:05:33.290Z,18.80
2022-11-06T20:08:04.555Z,17.90
2022-11-06T20:10:36.253Z,18.10
2022-11-06T20:13:07.469Z,19.50
2022-11-06T20:15:38.238Z,18.20
2022-11-06T20:18:09.573Z,18.70
2022-11-06T20:20:41.371Z,18.40
2022-11-06T20:23:14.719Z,19.20
2022-11-06T20:25:51.131Z,18.40
2022-11-06T20:28:24.274Z,19.20
2022-11-06T20:30:58.388Z,19.20
2022-11-06T20:36:09.537Z,19.20
2022-11-06T20:38:40.641Z,19.20
2022-11-06T20:41:12.085Z,19.00
2022-11-06T20:43:45.559Z,20.80
2022-11-06T20:46:17.959Z,22.60
2022-11-06T20:48:50.393Z,19.30
2022-11-06T20:51:22.672Z,21.00
2022-11-06T20:53:53.954Z,21.20
2022-11-06T20:56:25.872Z,18.80
2022-11-06T20:58:58.420Z,20.40
2022-11-06T21:01:31.033Z,20.40
2022-11-06T21:04:02.595Z,19.90
2022-11-06T21:06:33.913Z,20.10
2022-11-06T21:09:09.336Z,20.20
2022-11-06T21:11:42.316Z,22.00
2022-11-06T21:14:15.167Z,19.50
2022-11-06T21:16:46.389Z,19.00
2022-11-06T21:19:18.108Z,19.70
2022-11-06T21:21:49.042Z,20.60
2022-11-06T21:24:20.802Z,20.50
2022-11-06T21:26:55.147Z,20.80
2022-11-06T21:29:26.598Z,20.90
2022-11-06T21:31:56.978Z,21.70
2022-11-06T21:34:28.927Z,21.30
2022-11-06T21:37:02.657Z,20.50
2022-11-06T21:39:36.702Z,22.30
2022-11-06T21:42:07.481Z,21.40
2022-11-06T21:44:38.448Z,23.10
2022-11-06T21:47:09.648Z,22.00
2022-11-06T21:49:40.714Z,23.40
2022-11-06T21:52:31.253Z,22.80
2022-11-06T21:55:20.069Z,20.90
2022-11-06T21:57:50.412Z,21.00
2022-11-06T22:00:22.233Z,22.50
2022-11-06T22:02:52.729Z,23.20
2022-11-06T22:05:24.336Z,22.90
2022-11-06T22:07:54.956Z,22.30
2022-11-06T22:10:25.992Z,23.10
2022-11-06T22:12:57.228Z,20.60
2022-11-06T22:15:29.306Z,20.80
2022-11-06T22:17:59.685Z,23.10
2022-11-06T22:20:30.648Z,22.10
2022-11-06T22:23:00.943Z,23.50
2022-11-06T22:25:32.026Z,22.60
2022-11-06T22:28:02.546Z,22.80
2022-11-06T22:30:33.718Z,21.40
2022-11-06T22:33:04.349Z,24.10
2022-11-06T22:35:35.071Z,22.60
2022-11-06T22:38:05.577Z,21.90
2022-11-06T22:40:36.524Z,21.30
2022-11-06T22:43:07.024Z,22.50
2022-11-06T22:45:38.843Z,23.40
2022-11-06T22:48:09.303Z,22.10
2022-11-06T22:50:40.575Z,23.00
2022-11-06T22:53:15.018Z,22.70
2022-11-06T22:55:46.790Z,22.20
2022-11-06T22:58:17.285Z,22.20
2022-11-06T23:00:50.270Z,21.80
2022-11-06T23:03:21.262Z,22.10
2022-11-06T23:05:52.347Z,22.80
2022-11-06T23:08:22.818Z,22.90
2022-11-06T23:10:53.938Z,22.30
2022-11-06T23:13:24.744Z,23.20
2022-11-06T23:16:03.589Z,23.60
2022-11-06T23:18:34.204Z,23.60
2022-11-06T23:21:11.753Z,23.30
2022-11-06T23:23:42.121Z,22.20
2022-11-06T23:26:13.896Z,22.30
2022-11-06T23:28:45.546Z,23.00
2022-11-06T23:31:17.107Z,21.90
2022-11-06T23:33:47.712Z,22.80
2022-11-06T23:36:19.058Z,22.40
2022-11-06T23:38:49.560Z,21.10
2022-11-06T23:41:38.062Z,23.20
2022-11-06T23:44:29.799Z,23.30
2022-11-06T23:47:01.394Z,21.00
2022-11-06T23:49:32.093Z,22.50
2022-11-06T23:52:03.405Z,20.30
2022-11-06T23:54:33.788Z,22.40
2022-11-06T23:57:05.172Z,23.60
2022-11-06T23:59:35.558Z,21.90
